Time;durP1;ratioP1;P1;durP2;ratioP2;P2;SDS_P1;SDS_P2;PMS_P1;PMS_P2;Temp;Humidity;BMP_temperature;BMP_pressure;BME280_temperature;BME280_humidity;BME280_pressure;Samples;Min_cycle;Max_cycle;Signal;HPM_P1;HPM_P2
2023/07/16 00:01:29;;;;;;;13.85;8.25;;;23.80;99.90;;;;;;4973966;28;20023;-76
2023/07/16 00:03:55;;;;;;;15.23;9.18;;;23.90;99.90;;;;;;4983010;28;20030;-78
2023/07/16 00:06:21;;;;;;;13.32;7.43;;;23.90;99.90;;;;;;4973009;28;20045;-72
2023/07/16 00:08:47;;;;;;;11.57;6.53;;;23.90;99.90;;;;;;4971632;28;20129;-78
2023/07/16 00:11:12;;;;;;;12.23;6.63;;;23.90;99.90;;;;;;4973000;28;20030;-73
2023/07/16 00:13:38;;;;;;;15.15;6.78;;;23.90;99.90;;;;;;4969272;28;20037;-79
2023/07/16 00:16:04;;;;;;;13.07;6.80;;;23.80;99.90;;;;;;4973191;28;20449;-78
2023/07/16 00:18:30;;;;;;;17.63;7.38;;;23.70;99.90;;;;;;4973631;28;20066;-79
2023/07/16 00:20:56;;;;;;;13.27;7.15;;;23.60;99.90;;;;;;4972968;28;20047;-79
2023/07/16 00:23:21;;;;;;;12.18;7.45;;;23.60;99.90;;;;;;4976583;28;20038;-79
2023/07/16 00:25:47;;;;;;;10.80;6.65;;;23.40;99.90;;;;;;4977394;28;20034;-77
2023/07/16 00:28:13;;;;;;;16.60;7.20;;;23.60;99.90;;;;;;4974882;28;20061;-73
2023/07/16 00:30:39;;;;;;;14.63;6.75;;;23.70;99.90;;;;;;4974091;28;20357;-79
2023/07/16 00:33:07;;;;;;;13.88;6.85;;;23.70;99.90;;;;;;4971850;28;20035;-72
2023/07/16 00:35:33;;;;;;;15.38;7.82;;;23.50;99.90;;;;;;4973013;28;20042;-78
2023/07/16 00:37:59;;;;;;;16.42;7.22;;;23.40;99.90;;;;;;4974137;28;20125;-75
2023/07/16 00:40:25;;;;;;;19.67;7.32;;;23.50;99.90;;;;;;4971798;28;20747;-79
2023/07/16 00:42:51;;;;;;;12.82;7.30;;;23.50;99.90;;;;;;4967010;28;20031;-72
2023/07/16 00:45:17;;;;;;;15.85;7.15;;;23.50;99.90;;;;;;4971572;28;20113;-79
2023/07/16 00:47:44;;;;;;;11.40;7.00;;;23.50;99.90;;;;;;4964969;28;20166;-78
2023/07/16 00:50:11;;;;;;;18.45;7.43;;;23.40;99.90;;;;;;4984972;28;20014;-76
2023/07/16 00:52:38;;;;;;;13.63;7.20;;;23.50;99.90;;;;;;4966507;28;20033;-72
2023/07/16 00:55:05;;;;;;;15.00;7.30;;;23.40;99.90;;;;;;4963241;28;20027;-79
2023/07/16 00:57:32;;;;;;;11.07;7.43;;;23.40;99.90;;;;;;4980627;28;20066;-79
2023/07/16 00:59:58;;;;;;;12.13;7.22;;;23.40;99.90;;;;;;4957932;28;20027;-78
2023/07/16 01:02:24;;;;;;;13.40;7.18;;;23.40;99.90;;;;;;4977675;28;20110;-78
2023/07/16 01:04:50;;;;;;;14.38;7.15;;;23.40;99.90;;;;;;4956135;28;20042;-77
2023/07/16 01:07:18;;;;;;;13.98;8.02;;;23.30;99.90;;;;;;4971836;28;20403;-78
2023/07/16 01:09:45;;;;;;;16.42;7.35;;;23.10;99.90;;;;;;4973263;28;20042;-79
2023/07/16 01:12:12;;;;;;;15.25;8.75;;;23.00;99.90;;;;;;4971960;28;20058;-73
2023/07/16 01:14:40;;;;;;;21.70;7.82;;;22.90;99.90;;;;;;4972998;28;20030;-75
2023/07/16 01:17:06;;;;;;;13.48;7.65;;;23.00;99.90;;;;;;4964405;28;20121;-73
2023/07/16 01:19:33;;;;;;;20.83;7.25;;;23.00;99.90;;;;;;4975903;28;20069;-77
2023/07/16 01:22:07;;;;;;;15.65;7.20;;;23.00;99.90;;;;;;4962374;28;20114;-72
2023/07/16 01:25:14;;;;;;;15.07;8.80;;;23.00;99.90;;;;;;4968352;28;20061;-78
2023/07/16 01:27:50;;;;;;;13.38;7.93;;;23.00;99.90;;;;;;4971878;28;20042;-77
2023/07/16 01:30:19;;;;;;;14.30;8.57;;;23.00;99.90;;;;;;4972691;28;20026;-72
2023/07/16 01:32:46;;;;;;;16.23;7.47;;;23.00;99.90;;;;;;4954847;28;20118;-78
2023/07/16 01:35:13;;;;;;;16.05;8.75;;;22.90;99.90;;;;;;4973030;28;20100;-73
2023/07/16 01:37:40;;;;;;;16.25;8.50;;;22.90;99.90;;;;;;4973321;28;20425;-72
2023/07/16 01:40:08;;;;;;;13.68;8.48;;;22.90;99.90;;;;;;4956032;28;20519;-77
2023/07/16 01:42:34;;;;;;;13.68;8.70;;;22.80;99.90;;;;;;4971822;28;20473;-79
2023/07/16 01:45:00;;;;;;;14.32;8.07;;;22.80;99.90;;;;;;4953884;28;20035;-73
2023/07/16 01:47:40;;;;;;;17.95;8.70;;;22.80;99.90;;;;;;4971780;28;20377;-76
2023/07/16 01:50:06;;;;;;;13.85;7.93;;;22.80;99.90;;;;;;4966159;28;20033;-72
2023/07/16 01:52:32;;;;;;;13.70;8.48;;;22.90;99.90;;;;;;4972741;28;20078;-79
2023/07/16 01:54:58;;;;;;;15.35;8.07;;;23.00;99.90;;;;;;4973083;28;20022;-78
2023/07/16 01:57:24;;;;;;;14.38;9.02;;;23.00;99.90;;;;;;4972824;28;20031;-78
2023/07/16 01:59:50;;;;;;;15.63;9.23;;;23.00;99.90;;;;;;4972772;28;20023;-76
2023/07/16 02:02:15;;;;;;;14.93;8.65;;;22.80;99.90;;;;;;4973082;28;20039;-78
2023/07/16 02:04:41;;;;;;;18.20;8.70;;;22.90;99.90;;;;;;4972949;28;20051;-73
2023/07/16 02:07:07;;;;;;;14.63;8.95;;;22.80;99.90;;;;;;4959376;28;20043;-73
2023/07/16 02:09:35;;;;;;;12.95;8.85;;;22.70;99.90;;;;;;4960102;28;20039;-72
2023/07/16 02:12:00;;;;;;;14.15;8.45;;;22.80;99.90;;;;;;4977052;28;20031;-78
2023/07/16 02:14:27;;;;;;;16.20;8.65;;;22.80;99.90;;;;;;4959454;28;20029;-76
2023/07/16 02:16:53;;;;;;;14.57;8.27;;;22.60;99.90;;;;;;4976942;28;20031;-79
2023/07/16 02:19:18;;;;;;;14.02;8.73;;;22.60;99.90;;;;;;4974237;28;20054;-77
2023/07/16 02:21:44;;;;;;;14.55;9.50;;;22.60;99.90;;;;;;4957957;28;20027;-73
2023/07/16 02:24:10;;;;;;;13.73;8.85;;;22.50;99.90;;;;;;4975305;28;20499;-78
2023/07/16 02:26:36;;;;;;;15.68;9.57;;;22.40;99.90;;;;;;4975444;28;20485;-78
2023/07/16 02:29:02;;;;;;;16.35;8.95;;;22.40;99.90;;;;;;4975164;28;20031;-76
2023/07/16 02:31:28;;;;;;;15.73;9.85;;;22.50;99.90;;;;;;4974935;28;20365;-73
2023/07/16 02:33:53;;;;;;;14.40;8.73;;;22.50;99.90;;;;;;4975306;28;20090;-78
2023/07/16 02:36:19;;;;;;;15.02;9.10;;;22.50;99.90;;;;;;4957371;28;20481;-75
2023/07/16 02:38:45;;;;;;;15.05;8.23;;;22.40;99.90;;;;;;4957767;28;20051;-79
2023/07/16 02:41:11;;;;;;;12.43;8.05;;;22.30;99.90;;;;;;4975115;28;20041;-78
2023/07/16 02:43:36;;;;;;;15.27;9.18;;;22.20;99.90;;;;;;4974936;28;20037;-75
2023/07/16 02:46:02;;;;;;;14.40;8.90;;;22.00;99.90;;;;;;4974601;28;20022;-75
2023/07/16 02:48:28;;;;;;;13.15;8.88;;;21.90;99.90;;;;;;4957588;28;20038;-73
2023/07/16 02:50:54;;;;;;;16.30;9.15;;;21.80;99.90;;;;;;4974618;28;20022;-78
2023/07/16 02:53:20;;;;;;;16.60;10.00;;;21.80;99.90;;;;;;4972117;28;20027;-78
2023/07/16 02:55:46;;;;;;;14.98;9.63;;;21.80;99.90;;;;;;4957408;28;20031;-78
2023/07/16 02:58:12;;;;;;;19.75;9.23;;;21.90;99.90;;;;;;4975017;28;20035;-76
2023/07/16 03:00:38;;;;;;;16.02;9.90;;;21.90;99.90;;;;;;4957464;28;20150;-77
2023/07/16 03:03:04;;;;;;;14.30;9.02;;;21.90;99.90;;;;;;4973060;28;20035;-77
2023/07/16 03:05:30;;;;;;;14.98;9.75;;;22.00;99.90;;;;;;4974674;28;20023;-74
2023/07/16 03:07:57;;;;;;;16.80;10.07;;;22.10;99.90;;;;;;4972379;28;20101;-74
2023/07/16 03:10:23;;;;;;;15.02;8.80;;;22.10;99.90;;;;;;4974543;28;20027;-73
2023/07/16 03:12:49;;;;;;;14.20;9.38;;;22.10;99.90;;;;;;4956850;28;20071;-72
2023/07/16 03:15:15;;;;;;;19.20;10.18;;;22.20;99.90;;;;;;4957244;28;20026;-77
2023/07/16 03:17:40;;;;;;;15.82;8.75;;;22.20;99.90;;;;;;4974699;28;20027;-77
2023/07/16 03:20:08;;;;;;;17.25;9.57;;;22.30;99.90;;;;;;4973056;28;20436;-73
2023/07/16 03:22:34;;;;;;;14.68;10.13;;;22.40;99.90;;;;;;4973996;28;20023;-72
2023/07/16 03:25:00;;;;;;;13.77;8.93;;;22.40;99.90;;;;;;4956943;28;20555;-78
2023/07/16 03:27:26;;;;;;;15.45;9.60;;;22.40;99.90;;;;;;4974209;28;20065;-72
2023/07/16 03:29:57;;;;;;;18.42;9.52;;;22.50;99.90;;;;;;4973874;28;20027;-73
2023/07/16 03:32:23;;;;;;;14.25;9.63;;;22.60;99.90;;;;;;4956692;28;20030;-77
2023/07/16 03:34:49;;;;;;;19.45;10.13;;;22.70;99.90;;;;;;4974034;28;20023;-76
2023/07/16 03:37:15;;;;;;;22.48;10.90;;;22.70;99.90;;;;;;4973868;28;20022;-78
2023/07/16 03:39:41;;;;;;;16.63;9.98;;;22.80;99.90;;;;;;4956646;28;20081;-78
2023/07/16 03:42:07;;;;;;;16.77;10.02;;;22.80;99.90;;;;;;4973727;28;20023;-72
2023/07/16 03:44:32;;;;;;;17.02;9.45;;;22.90;99.90;;;;;;4972761;28;20125;-73
2023/07/16 03:47:00;;;;;;;18.20;8.52;;;23.00;99.90;;;;;;4956242;28;20030;-74
2023/07/16 03:49:26;;;;;;;16.23;9.60;;;23.10;99.90;;;;;;4956556;28;20026;-77
2023/07/16 03:51:52;;;;;;;16.55;9.55;;;23.60;99.90;;;;;;4956227;28;20500;-78
2023/07/16 03:54:18;;;;;;;15.40;8.80;;;24.20;99.90;;;;;;4956425;28;20054;-76
2023/07/16 03:56:43;;;;;;;14.15;9.27;;;24.80;99.90;;;;;;4956177;28;20034;-72
2023/07/16 03:59:09;;;;;;;15.82;9.20;;;25.40;99.90;;;;;;4974046;28;20065;-79
2023/07/16 04:01:35;;;;;;;14.40;9.23;;;25.80;99.90;;;;;;4973505;28;20033;-79
2023/07/16 04:04:01;;;;;;;19.10;8.77;;;25.70;99.90;;;;;;4973546;28;20349;-79
2023/07/16 04:06:26;;;;;;;17.65;9.38;;;26.40;99.90;;;;;;4973323;28;20566;-79
2023/07/16 04:08:52;;;;;;;13.63;8.73;;;26.90;99.90;;;;;;4973407;28;20505;-79
2023/07/16 04:11:18;;;;;;;14.27;8.80;;;27.30;99.90;;;;;;4973549;28;20019;-80
2023/07/16 04:13:44;;;;;;;14.20;8.48;;;27.60;99.90;;;;;;4973315;28;20031;-72
2023/07/16 04:16:10;;;;;;;17.00;8.35;;;27.80;99.90;;;;;;4973541;28;20034;-79
2023/07/16 04:18:35;;;;;;;15.25;8.75;;;28.20;99.90;;;;;;4972879;28;20539;-73
2023/07/16 04:21:01;;;;;;;12.75;8.13;;;28.60;99.90;;;;;;4973378;28;20033;-79
2023/07/16 04:23:27;;;;;;;12.10;8.35;;;29.20;99.90;;;;;;4973112;28;20114;-77
2023/07/16 04:25:54;;;;;;;19.70;8.95;;;29.80;99.90;;;;;;4973188;28;20022;-79
2023/07/16 04:28:20;;;;;;;17.20;8.25;;;30.40;98.90;;;;;;4972929;28;20088;-74
2023/07/16 04:30:46;;;;;;;13.93;8.70;;;30.80;97.80;;;;;;4973366;28;20058;-77
2023/07/16 04:33:12;;;;;;;15.35;9.18;;;31.10;96.10;;;;;;4973308;28;20045;-75
2023/07/16 04:35:38;;;;;;;13.55;8.48;;;31.50;94.50;;;;;;4968259;28;20436;-73
2023/07/16 04:38:03;;;;;;;11.13;8.02;;;32.00;93.40;;;;;;4974055;28;20039;-78
2023/07/16 04:40:30;;;;;;;18.80;8.32;;;32.30;92.40;;;;;;4972853;28;20469;-78
2023/07/16 04:42:56;;;;;;;20.65;9.13;;;32.30;92.00;;;;;;4972846;28;20035;-80
2023/07/16 04:45:21;;;;;;;14.98;9.45;;;33.00;92.00;;;;;;4974007;28;20022;-79
2023/07/16 04:47:47;;;;;;;13.32;8.68;;;33.00;91.40;;;;;;4974167;28;20043;-79
2023/07/16 04:50:13;;;;;;;16.33;8.80;;;33.60;90.80;;;;;;4973816;28;20027;-80
2023/07/16 04:52:39;;;;;;;18.52;9.93;;;33.40;90.30;;;;;;4961143;28;20061;-80
2023/07/16 04:55:05;;;;;;;14.35;9.75;;;33.90;90.10;;;;;;4972709;28;20086;-80
2023/07/16 04:57:33;;;;;;;19.10;9.90;;;34.10;90.00;;;;;;4974153;28;20070;-80
2023/07/16 04:59:59;;;;;;;16.73;9.55;;;34.10;89.80;;;;;;4957537;28;20081;-79
2023/07/16 05:02:25;;;;;;;18.25;8.73;;;33.90;90.50;;;;;;4973975;28;20480;-79
2023/07/16 05:04:50;;;;;;;12.80;8.80;;;33.50;90.10;;;;;;4972400;28;20034;-80
2023/07/16 05:07:16;;;;;;;14.52;9.13;;;32.80;90.40;;;;;;4973393;28;20476;-72
2023/07/16 05:09:43;;;;;;;29.98;9.38;;;32.20;90.70;;;;;;4973960;28;20035;-80
2023/07/16 05:12:09;;;;;;;14.73;9.07;;;31.50;90.90;;;;;;4973472;28;20027;-80
2023/07/16 05:14:45;;;;;;;19.20;10.60;;;31.20;91.60;;;;;;4972316;28;20499;-80
2023/07/16 05:17:12;;;;;;;14.88;9.32;;;30.70;92.00;;;;;;4969710;28;20033;-80
2023/07/16 05:19:38;;;;;;;17.33;9.88;;;30.50;92.80;;;;;;4973652;28;20022;-73
2023/07/16 05:22:04;;;;;;;18.10;10.02;;;30.10;93.40;;;;;;4968218;28;20026;-81
2023/07/16 05:24:31;;;;;;;17.30;9.68;;;29.40;94.10;;;;;;4971930;28;20046;-73
2023/07/16 05:26:56;;;;;;;17.77;10.18;;;29.50;96.50;;;;;;4978952;28;20388;-76
2023/07/16 05:29:22;;;;;;;18.92;9.35;;;29.40;97.00;;;;;;4973338;28;20027;-80
2023/07/16 05:31:48;;;;;;;16.05;10.32;;;29.60;97.50;;;;;;4968540;28;20023;-80
2023/07/16 05:34:14;;;;;;;15.07;9.80;;;29.70;97.70;;;;;;4962366;28;20033;-79
2023/07/16 05:36:42;;;;;;;17.67;10.07;;;29.90;97.10;;;;;;4972307;28;20031;-79
2023/07/16 05:39:08;;;;;;;15.02;9.80;;;29.80;98.10;;;;;;4973165;28;20043;-79
2023/07/16 05:41:34;;;;;;;21.38;10.40;;;30.00;97.30;;;;;;4973244;28;20015;-74
2023/07/16 05:44:00;;;;;;;17.13;10.73;;;30.20;96.80;;;;;;4972306;28;20031;-73
2023/07/16 05:46:25;;;;;;;17.52;9.95;;;30.20;96.60;;;;;;4973457;28;20034;-73
2023/07/16 05:48:52;;;;;;;18.13;10.60;;;30.30;97.00;;;;;;4972868;28;20043;-74
2023/07/16 05:51:17;;;;;;;15.65;9.68;;;30.20;96.00;;;;;;4973088;28;20468;-73
2023/07/16 05:53:43;;;;;;;17.45;10.18;;;30.30;96.70;;;;;;4981398;28;20092;-79
2023/07/16 05:56:09;;;;;;;17.55;10.77;;;30.60;97.40;;;;;;4975241;28;20392;-80
2023/07/16 05:58:35;;;;;;;15.27;9.77;;;30.60;96.70;;;;;;4973349;28;20034;-79
2023/07/16 06:01:00;;;;;;;17.63;10.25;;;30.70;95.90;;;;;;4972993;28;20023;-78
2023/07/16 06:03:26;;;;;;;18.50;11.50;;;30.70;95.70;;;;;;4973256;28;20039;-76
2023/07/16 06:05:52;;;;;;;16.08;10.35;;;30.50;95.30;;;;;;4972623;28;20023;-73
2023/07/16 06:08:18;;;;;;;15.20;10.73;;;30.80;96.50;;;;;;4972713;28;20501;-73
2023/07/16 06:10:45;;;;;;;20.63;10.63;;;30.90;96.10;;;;;;4973169;28;20121;-79
2023/07/16 06:13:10;;;;;;;15.30;10.65;;;31.00;95.40;;;;;;4973038;28;20028;-75
2023/07/16 06:15:36;;;;;;;15.82;11.30;;;31.10;95.10;;;;;;4972823;28;20392;-79
2023/07/16 06:18:02;;;;;;;20.70;12.40;;;31.20;94.80;;;;;;4972793;28;20477;-73
2023/07/16 06:20:28;;;;;;;14.60;10.95;;;31.20;94.80;;;;;;4972696;28;20022;-80
2023/07/16 06:22:54;;;;;;;19.52;11.35;;;31.30;95.30;;;;;;4972808;28;20042;-79
2023/07/16 06:25:20;;;;;;;16.25;10.23;;;31.50;94.50;;;;;;4972944;28;20027;-75
2023/07/16 06:27:46;;;;;;;16.55;10.50;;;31.60;95.10;;;;;;4972926;28;20412;-78
2023/07/16 06:30:12;;;;;;;17.27;10.88;;;31.30;94.80;;;;;;4972901;28;20069;-80
2023/07/16 06:32:37;;;;;;;19.67;11.85;;;31.20;94.30;;;;;;4972881;28;20023;-73
2023/07/16 06:35:03;;;;;;;17.02;10.88;;;31.30;94.80;;;;;;4972718;28;20496;-80
2023/07/16 06:37:29;;;;;;;22.10;11.07;;;31.20;94.80;;;;;;4972696;28;20038;-73
2023/07/16 06:39:55;;;;;;;16.75;11.27;;;31.50;95.40;;;;;;4972850;28;20023;-80
2023/07/16 06:42:21;;;;;;;14.52;10.32;;;31.30;94.80;;;;;;4972639;28;20019;-75
2023/07/16 06:44:48;;;;;;;16.45;10.07;;;31.60;95.60;;;;;;4972714;28;20026;-76
2023/07/16 06:47:14;;;;;;;17.13;10.45;;;31.60;94.40;;;;;;4978077;28;20030;-80
2023/07/16 06:49:39;;;;;;;19.58;12.02;;;31.60;94.10;;;;;;4991973;28;20088;-81
2023/07/16 06:52:06;;;;;;;20.20;11.35;;;31.60;93.60;;;;;;4986078;28;20077;-81
2023/07/16 06:54:31;;;;;;;23.50;11.43;;;31.90;94.40;;;;;;4981031;28;20031;-81
2023/07/16 06:56:57;;;;;;;18.42;12.50;;;32.00;93.80;;;;;;4975626;28;20026;-72
2023/07/16 06:59:23;;;;;;;20.45;11.18;;;31.90;95.00;;;;;;4975685;28;20022;-80
2023/07/16 07:01:49;;;;;;;19.08;10.57;;;32.30;95.00;;;;;;4976194;28;20484;-81
2023/07/16 07:04:15;;;;;;;20.70;11.30;;;32.50;94.00;;;;;;4975752;28;20033;-77
2023/07/16 07:06:41;;;;;;;15.98;10.18;;;32.40;93.70;;;;;;4975922;28;20090;-73
2023/07/16 07:09:06;;;;;;;16.48;10.70;;;32.20;94.10;;;;;;4975800;28;20126;-75
2023/07/16 07:11:32;;;;;;;16.95;11.35;;;32.20;93.90;;;;;;4975993;28;20019;-80
2023/07/16 07:13:58;;;;;;;17.88;10.90;;;32.10;94.40;;;;;;4975599;28;20061;-76
2023/07/16 07:16:24;;;;;;;14.43;10.18;;;32.20;94.60;;;;;;4975301;28;20031;-80
2023/07/16 07:18:50;;;;;;;18.20;9.90;;;32.60;95.20;;;;;;4976146;28;20022;-81
2023/07/16 07:21:15;;;;;;;17.65;9.93;;;32.60;93.50;;;;;;4988692;28;20495;-80
2023/07/16 07:23:42;;;;;;;15.82;10.10;;;32.90;93.40;;;;;;4975826;28;20026;-76
2023/07/16 07:26:08;;;;;;;23.17;10.60;;;32.90;93.00;;;;;;4975752;28;20482;-80
2023/07/16 07:28:34;;;;;;;16.75;9.85;;;32.80;93.70;;;;;;4975542;28;20070;-80
2023/07/16 07:31:01;;;;;;;18.25;10.45;;;32.90;92.60;;;;;;4974668;28;20031;-79
2023/07/16 07:33:26;;;;;;;15.90;9.90;;;32.90;92.60;;;;;;4975516;28;20089;-76
2023/07/16 07:35:56;;;;;;;17.08;9.32;;;33.10;93.30;;;;;;4975346;28;20038;-79
2023/07/16 07:38:22;;;;;;;19.23;10.05;;;33.10;93.30;;;;;;4975482;28;20030;-73
2023/07/16 07:40:48;;;;;;;15.52;9.15;;;33.00;92.90;;;;;;4975571;28;20110;-73
2023/07/16 07:43:13;;;;;;;13.90;8.63;;;34.30;97.10;;;;;;4975174;28;20030;-72
2023/07/16 07:45:39;;;;;;;14.00;9.98;;;33.00;95.60;;;;;;4975540;28;20050;-80
2023/07/16 07:48:05;;;;;;;16.98;9.95;;;32.90;94.40;;;;;;4974793;28;20043;-74
2023/07/16 07:50:31;;;;;;;22.30;9.20;;;32.40;93.00;;;;;;4975757;28;20023;-79
2023/07/16 07:52:56;;;;;;;21.30;10.10;;;32.70;92.80;;;;;;4974814;28;20093;-73
2023/07/16 07:55:22;;;;;;;13.15;10.10;;;33.30;93.40;;;;;;4975264;28;20377;-74
2023/07/16 07:57:48;;;;;;;15.55;9.57;;;33.40;93.00;;;;;;4975153;28;20596;-74
2023/07/16 08:00:14;;;;;;;14.82;10.43;;;33.40;91.90;;;;;;4975070;28;20048;-80
2023/07/16 08:02:41;;;;;;;17.73;10.48;;;;;;;;;;4974932;28;20416;-79
2023/07/16 08:05:08;;;;;;;15.52;10.07;;;33.90;91.60;;;;;;4974810;28;20496;-73
2023/07/16 08:07:33;;;;;;;18.27;10.00;;;34.00;93.70;;;;;;4971046;28;20043;-79
2023/07/16 08:09:59;;;;;;;14.43;9.85;;;33.90;94.50;;;;;;4974246;28;20034;-73
2023/07/16 08:12:25;;;;;;;17.33;10.52;;;34.00;99.10;;;;;;4974457;28;20023;-80
2023/07/16 08:14:54;;;;;;;16.42;9.75;;;;;;;;;;4974861;28;20023;-79
2023/07/16 08:17:19;;;;;;;16.88;11.02;;;34.00;91.70;;;;;;4974331;28;20026;-78
2023/07/16 08:19:45;;;;;;;18.85;10.07;;;34.20;91.20;;;;;;4974205;28;20472;-80
2023/07/16 08:22:12;;;;;;;17.33;10.55;;;34.00;90.60;;;;;;4974663;28;20039;-78
2023/07/16 08:24:38;;;;;;;11.23;9.20;;;34.20;90.40;;;;;;4974295;28;20046;-73
2023/07/16 08:27:04;;;;;;;19.02;9.10;;;34.50;90.70;;;;;;4974251;28;20081;-76
2023/07/16 08:29:30;;;;;;;15.13;10.27;;;34.50;90.90;;;;;;4974093;28;20038;-79
2023/07/16 08:31:55;;;;;;;15.57;10.15;;;34.60;90.20;;;;;;4973919;28;20027;-78
2023/07/16 08:34:21;;;;;;;19.15;11.27;;;34.60;90.10;;;;;;4974655;28;20030;-79
2023/07/16 08:36:47;;;;;;;13.95;10.32;;;34.40;90.10;;;;;;4974200;28;20027;-80
2023/07/16 08:39:13;;;;;;;14.77;10.35;;;34.70;90.50;;;;;;4973730;28;20030;-79
2023/07/16 08:41:39;;;;;;;17.30;10.27;;;34.70;90.40;;;;;;4973986;28;20117;-79
2023/07/16 08:44:05;;;;;;;16.48;10.20;;;35.10;90.40;;;;;;4974458;28;20031;-73
2023/07/16 08:46:32;;;;;;;16.58;11.70;;;35.10;90.10;;;;;;4973825;28;20025;-73
2023/07/16 08:48:59;;;;;;;17.73;10.82;;;35.30;90.40;;;;;;4973719;28;20030;-73
2023/07/16 08:51:26;;;;;;;22.95;12.02;;;35.60;89.80;;;;;;4973788;28;20396;-79
2023/07/16 08:53:52;;;;;;;18.20;12.68;;;35.90;88.60;;;;;;4973830;28;20481;-73
2023/07/16 08:56:18;;;;;;;20.25;11.60;;;35.80;89.10;;;;;;4973716;28;20746;-73
2023/07/16 08:58:47;;;;;;;19.75;12.50;;;36.10;91.00;;;;;;4973637;28;20031;-80
2023/07/16 09:01:17;;;;;;;18.27;12.05;;;36.20;95.60;;;;;;4973398;28;20030;-73
2023/07/16 09:03:44;;;;;;;19.25;12.45;;;;;;;;;;4973534;28;20436;-73
2023/07/16 09:06:10;;;;;;;18.02;13.00;;;35.20;95.50;;;;;;4973775;28;20473;-78
2023/07/16 09:08:36;;;;;;;19.13;12.60;;;;;;;;;;4972560;28;20054;-80
2023/07/16 09:11:02;;;;;;;19.27;12.85;;;35.40;98.20;;;;;;4973324;28;20050;-80
2023/07/16 09:13:29;;;;;;;19.13;13.35;;;35.70;98.20;;;;;;4973222;28;20054;-73
2023/07/16 09:15:57;;;;;;;20.25;13.75;;;35.90;93.00;;;;;;4973469;28;20366;-79
2023/07/16 09:18:24;;;;;;;17.48;14.00;;;35.80;93.40;;;;;;4973382;28;20065;-80
2023/07/16 09:21:02;;;;;;;22.27;14.32;;;35.80;94.20;;;;;;4972830;28;20468;-73
2023/07/16 09:23:30;;;;;;;25.00;14.73;;;35.80;93.70;;;;;;4973037;28;20035;-78
2023/07/16 09:25:57;;;;;;;18.13;13.98;;;;;;;;;;4973302;28;20086;-73
2023/07/16 09:28:23;;;;;;;17.58;14.15;;;36.00;94.20;;;;;;4973359;28;20035;-73
2023/07/16 09:30:50;;;;;;;23.05;16.98;;;35.90;95.20;;;;;;4973247;28;20524;-73
2023/07/16 09:33:18;;;;;;;23.02;18.35;;;35.90;95.00;;;;;;4973147;28;20082;-73
2023/07/16 09:35:45;;;;;;;19.70;17.05;;;;;;;;;;4973281;28;20027;-73
2023/07/16 09:38:11;;;;;;;21.42;17.63;;;35.90;98.20;;;;;;4972776;28;20031;-80
2023/07/16 09:40:38;;;;;;;22.85;20.08;;;35.80;98.10;;;;;;4972784;28;20089;-76
2023/07/16 09:43:05;;;;;;;27.50;24.60;;;35.60;99.00;;;;;;4973169;28;20087;-79
2023/07/16 09:45:31;;;;;;;25.48;22.77;;;35.50;99.90;;;;;;4972695;28;20424;-79
2023/07/16 09:47:57;;;;;;;24.67;21.70;;;35.80;99.90;;;;;;4972519;28;20098;-73
2023/07/16 09:50:28;;;;;;;24.25;21.75;;;;;;;;;;4972622;28;20110;-80
2023/07/16 09:52:55;;;;;;;;;;;35.90;89.70;;;;;;4973415;28;20049;-74
2023/07/16 09:55:22;;;;;;;24.35;21.90;;;36.40;90.20;;;;;;4973157;28;19913;-72
2023/07/16 09:57:50;;;;;;;25.00;19.90;;;36.40;89.80;;;;;;4972649;28;20027;-79
2023/07/16 10:00:17;;;;;;;23.13;20.65;;;36.20;88.20;;;;;;4972240;28;20023;-74
2023/07/16 10:02:44;;;;;;;27.48;22.80;;;;;;;;;;4973012;28;20035;-80
2023/07/16 10:05:25;;;;;;;23.35;20.98;;;36.60;87.80;;;;;;4972231;28;20031;-74
2023/07/16 10:07:59;;;;;;;21.05;17.90;;;36.60;89.90;;;;;;4973046;28;20086;-73
2023/07/16 10:11:01;;;;;;;24.85;21.17;;;36.50;89.50;;;;;;4972597;28;20393;-80
2023/07/16 10:13:27;;;;;;;26.02;23.35;;;36.20;88.90;;;;;;4965238;28;20047;-75
2023/07/16 10:15:59;;;;;;;25.27;22.27;;;36.30;87.10;;;;;;4972669;28;20576;-79
2023/07/16 10:18:33;;;;;;;20.73;18.08;;;36.20;86.20;;;;;;4970703;28;20031;-78
2023/07/16 10:21:09;;;;;;;21.90;18.70;;;36.00;86.00;;;;;;4972748;28;20023;-74
2023/07/16 10:23:43;;;;;;;24.08;19.58;;;36.00;88.00;;;;;;4973061;28;20030;-79
2023/07/16 10:26:11;;;;;;;20.25;18.05;;;36.20;87.70;;;;;;4972841;28;20377;-73
2023/07/16 10:28:38;;;;;;;20.08;17.48;;;36.10;87.10;;;;;;4972264;28;20039;-74
2023/07/16 10:31:07;;;;;;;19.52;16.08;;;36.30;87.30;;;;;;4975299;28;20165;-78
2023/07/16 10:33:33;;;;;;;21.98;17.02;;;36.40;90.00;;;;;;4976473;28;20109;-80
2023/07/16 10:36:00;;;;;;;22.98;16.63;;;36.20;88.10;;;;;;4976518;28;20501;-79
2023/07/16 10:38:26;;;;;;;19.23;16.73;;;36.10;89.40;;;;;;4975596;28;20114;-80
2023/07/16 10:40:52;;;;;;;22.67;16.75;;;36.10;89.50;;;;;;4976513;28;20046;-80
2023/07/16 10:43:18;;;;;;;22.15;16.08;;;36.20;88.10;;;;;;4976150;28;20039;-80
2023/07/16 10:45:46;;;;;;;23.05;17.55;;;36.40;89.00;;;;;;4982596;28;20015;-81
2023/07/16 10:48:12;;;;;;;20.95;17.70;;;36.50;90.00;;;;;;4987694;28;20476;-80
2023/07/16 10:50:38;;;;;;;19.85;17.00;;;36.50;87.60;;;;;;4975526;28;20062;-77
2023/07/16 10:53:04;;;;;;;21.67;16.65;;;35.90;89.20;;;;;;4983860;28;20503;-79
2023/07/16 10:55:32;;;;;;;24.90;16.77;;;35.70;89.80;;;;;;4975432;28;20027;-81
2023/07/16 10:57:58;;;;;;;20.17;16.23;;;35.80;89.90;;;;;;4973866;28;20026;-79
2023/07/16 11:00:24;;;;;;;23.27;15.20;;;35.80;87.40;;;;;;4974837;28;20370;-72
2023/07/16 11:02:51;;;;;;;18.75;14.50;;;35.80;89.20;;;;;;4967679;28;20031;-72
2023/07/16 11:05:18;;;;;;;19.13;15.25;;;36.00;89.50;;;;;;4975787;28;20065;-73
2023/07/16 11:07:45;;;;;;;18.63;14.93;;;36.00;89.80;;;;;;4971652;28;20055;-73
2023/07/16 11:10:11;;;;;;;22.58;14.45;;;36.30;89.70;;;;;;4981185;28;20037;-80
2023/07/16 11:12:37;;;;;;;18.20;14.30;;;36.50;89.10;;;;;;4975748;28;21015;-76
2023/07/16 11:15:03;;;;;;;19.95;14.52;;;36.30;88.50;;;;;;4974968;28;20040;-73
2023/07/16 11:17:30;;;;;;;22.73;13.93;;;36.40;89.60;;;;;;4974565;28;20054;-79
2023/07/16 11:19:59;;;;;;;18.98;13.73;;;36.40;87.40;;;;;;4980973;28;20039;-74
2023/07/16 11:22:26;;;;;;;21.25;13.48;;;36.20;86.00;;;;;;4975737;28;20037;-76
2023/07/16 11:24:53;;;;;;;17.33;13.90;;;36.20;87.30;;;;;;4983456;28;20030;-72
2023/07/16 11:27:24;;;;;;;17.38;14.02;;;36.20;84.80;;;;;;4970911;28;20054;-76
2023/07/16 11:29:55;;;;;;;18.52;13.75;;;35.90;86.60;;;;;;4972040;28;20031;-72
2023/07/16 11:32:34;;;;;;;20.47;14.50;;;36.00;87.30;;;;;;4975776;28;20397;-80
2023/07/16 11:35:01;;;;;;;20.42;14.80;;;36.40;86.80;;;;;;4975695;28;20406;-79
2023/07/16 11:37:29;;;;;;;18.85;14.93;;;36.50;87.40;;;;;;4975742;28;20106;-73
2023/07/16 11:40:05;;;;;;;24.83;14.38;;;36.00;86.00;;;;;;4975266;28;20038;-74
2023/07/16 11:42:32;;;;;;;21.05;13.80;;;36.20;85.90;;;;;;4974194;28;20424;-79
2023/07/16 11:44:59;;;;;;;17.45;13.85;;;36.00;85.40;;;;;;4975438;28;20022;-73
2023/07/16 11:47:26;;;;;;;21.00;14.23;;;35.70;85.90;;;;;;4975429;28;20105;-72
2023/07/16 11:49:52;;;;;;;23.42;15.63;;;35.70;90.40;;;;;;4975398;28;20034;-72
2023/07/16 11:52:25;;;;;;;17.55;13.68;;;35.50;88.70;;;;;;4975210;28;20173;-79
2023/07/16 11:54:52;;;;;;;17.75;14.00;;;35.70;87.40;;;;;;4968499;28;20046;-73
2023/07/16 11:57:18;;;;;;;17.23;13.45;;;35.80;87.20;;;;;;4975113;28;20547;-79
2023/07/16 11:59:44;;;;;;;16.50;13.25;;;35.80;86.30;;;;;;4975111;28;20037;-75
2023/07/16 12:02:10;;;;;;;17.15;12.60;;;35.70;85.60;;;;;;4957653;28;20035;-72
2023/07/16 12:04:36;;;;;;;16.15;13.20;;;35.80;85.90;;;;;;4974958;28;20042;-78
2023/07/16 12:07:02;;;;;;;18.13;13.73;;;35.90;86.20;;;;;;4975097;28;20051;-81
2023/07/16 12:09:28;;;;;;;19.85;14.77;;;36.00;86.80;;;;;;4974763;28;20047;-73
2023/07/16 12:11:54;;;;;;;19.83;15.02;;;35.80;87.40;;;;;;4975044;28;20031;-79
2023/07/16 12:14:20;;;;;;;17.85;13.88;;;36.10;86.40;;;;;;4974840;28;20074;-80
2023/07/16 12:16:46;;;;;;;16.65;13.95;;;36.30;89.00;;;;;;4974971;28;20023;-79
2023/07/16 12:19:12;;;;;;;18.30;14.32;;;36.10;88.40;;;;;;4975029;28;20027;-80
2023/07/16 12:21:37;;;;;;;18.42;13.45;;;36.10;87.20;;;;;;4974969;28;20027;-76
2023/07/16 12:24:04;;;;;;;17.50;14.57;;;35.90;87.90;;;;;;4974482;28;20540;-80
2023/07/16 12:26:29;;;;;;;20.65;13.27;;;35.90;87.50;;;;;;4974763;28;20487;-78
2023/07/16 12:28:55;;;;;;;17.85;13.98;;;35.90;86.60;;;;;;4974626;28;20035;-78
2023/07/16 12:31:21;;;;;;;16.73;13.75;;;36.20;87.00;;;;;;4974396;28;20432;-79
2023/07/16 12:33:47;;;;;;;20.17;14.02;;;36.10;86.40;;;;;;4974705;28;20484;-77